Time;durP1;ratioP1;P1;durP2;ratioP2;P2;SDS_P1;SDS_P2;PMS_P1;PMS_P2;Temp;Humidity;BMP_temperature;BMP_pressure;BME280_temperature;BME280_humidity;BME280_pressure;Samples;Min_cycle;Max_cycle;Signal;HPM_P1;HPM_P2
2021/09/25 00:00:34;;;;;;;10.95;2.55;;;;;;;;;;5047830;28;20061;-70
2021/09/25 00:03:01;;;;;;;8.85;2.42;;;;;;;;;;5050943;28;20021;-70
2021/09/25 00:05:32;;;;;;;11.48;2.60;;;;;;;;;;5048744;28;20378;-70
2021/09/25 00:07:58;;;;;;;12.55;2.83;;;;;;;;;;5050393;28;20389;-70
2021/09/25 00:10:25;;;;;;;5.00;1.88;;;;;;;;;;5056173;28;20036;-70
2021/09/25 00:12:51;;;;;;;8.85;2.60;;;;;;;;;;5050781;28;20028;-70
2021/09/25 00:15:18;;;;;;;8.35;2.20;;;;;;;;;;5050881;28;20040;-70
2021/09/25 00:17:45;;;;;;;11.93;2.13;;;;;;;;;;5048686;28;20021;-70
2021/09/25 00:20:11;;;;;;;6.82;2.55;;;;;;;;;;5050729;28;20362;-70
2021/09/25 00:22:37;;;;;;;10.85;2.00;;;;;;;;;;5050281;28;20021;-70
2021/09/25 00:25:03;;;;;;;9.85;2.45;;;;;;;;;;5050206;28;20025;-70
2021/09/25 00:27:29;;;;;;;6.22;1.77;;;;;;;;;;5043369;28;20100;-70
2021/09/25 00:29:56;;;;;;;11.10;3.05;;;;;;;;;;5047425;28;20108;-70
2021/09/25 00:32:22;;;;;;;5.65;2.33;;;;;;;;;;5031167;28;20454;-70
2021/09/25 00:34:48;;;;;;;7.70;2.08;;;;;;;;;;5047620;28;20165;-70
2021/09/25 00:37:14;;;;;;;8.52;2.65;;;;;;;;;;5043876;28;20029;-71
2021/09/25 00:39:40;;;;;;;16.33;3.03;;;;;;;;;;5048126;28;20032;-70
2021/09/25 00:42:06;;;;;;;9.82;2.67;;;;;;;;;;5045080;28;20025;-70
2021/09/25 00:44:32;;;;;;;9.52;2.92;;;;;;;;;;5047140;28;20040;-70
2021/09/25 00:46:58;;;;;;;8.50;3.40;;;;;;;;;;5047581;28;20053;-70
2021/09/25 00:49:24;;;;;;;11.68;3.03;;;;;;;;;;5050108;28;20028;-70
2021/09/25 00:51:50;;;;;;;10.88;2.20;;;;;;;;;;5035509;28;20036;-70
2021/09/25 00:54:17;;;;;;;13.25;2.35;;;;;;;;;;5027898;28;20018;-70
2021/09/25 00:56:44;;;;;;;11.90;3.20;;;;;;;;;;5044742;28;20024;-70
2021/09/25 00:59:10;;;;;;;11.18;2.55;;;;;;;;;;5052781;28;20025;-70
2021/09/25 01:01:36;;;;;;;10.40;2.55;;;;;;;;;;5045006;28;20025;-70
2021/09/25 01:04:02;;;;;;;9.20;2.47;;;;;;;;;;5050009;28;20445;-70
2021/09/25 01:06:28;;;;;;;11.98;3.35;;;;;;;;;;5049751;28;20031;-70
2021/09/25 01:08:54;;;;;;;9.20;3.17;;;;;;;;;;5050559;28;20063;-70
2021/09/25 01:11:20;;;;;;;11.23;2.47;;;;;;;;;;5043025;28;20041;-70
2021/09/25 01:13:46;;;;;;;13.57;3.33;;;;;;;;;;5049947;28;20040;-70
2021/09/25 01:16:12;;;;;;;10.30;3.85;;;;;;;;;;5046184;28;20029;-70
2021/09/25 01:18:38;;;;;;;11.82;2.95;;;;;;;;;;5044381;28;20489;-70
2021/09/25 01:21:05;;;;;;;9.35;3.15;;;;;;;;;;5049328;28;20539;-70
2021/09/25 01:23:31;;;;;;;13.38;3.00;;;;;;;;;;5045356;28;21478;-70
2021/09/25 01:25:57;;;;;;;10.25;3.95;;;;;;;;;;5042535;28;20060;-70
2021/09/25 01:28:22;;;;;;;11.93;3.58;;;;;;;;;;5048034;28;20052;-70
2021/09/25 01:30:48;;;;;;;5.47;2.38;;;;;;;;;;5040063;28;20040;-70
2021/09/25 01:33:14;;;;;;;13.05;3.97;;;;;;;;;;5045725;28;20033;-70
2021/09/25 01:35:40;;;;;;;10.25;3.28;;;;;;;;;;5026351;28;20029;-70
2021/09/25 01:38:06;;;;;;;9.75;3.83;;;;;;;;;;5049364;28;20078;-70
2021/09/25 01:40:32;;;;;;;10.30;3.75;;;;;;;;;;5047403;28;20112;-70
2021/09/25 01:42:58;;;;;;;7.55;3.10;;;;;;;;;;5044428;28;20114;-70
2021/09/25 01:45:24;;;;;;;8.32;4.10;;;;;;;;;;5048256;28;20124;-70
2021/09/25 01:47:50;;;;;;;12.95;3.60;;;;;;;;;;5045367;28;20104;-70
2021/09/25 01:50:16;;;;;;;9.55;4.25;;;;;;;;;;5046505;28;20263;-70
2021/09/25 01:52:42;;;;;;;11.02;3.90;;;;;;;;;;5049321;28;20021;-70
2021/09/25 01:55:09;;;;;;;10.63;4.43;;;;;;;;;;5041887;28;20501;-70
2021/09/25 01:57:35;;;;;;;11.95;4.78;;;;;;;;;;5048886;28;20512;-70
2021/09/25 02:00:01;;;;;;;9.15;3.95;;;;;;;;;;5049546;28;20029;-70
2021/09/25 02:02:27;;;;;;;10.45;4.20;;;;;;;;;;5048525;28;20477;-70
2021/09/25 02:04:53;;;;;;;8.90;4.30;;;;;;;;;;5049013;28;20033;-70
2021/09/25 02:07:19;;;;;;;9.10;4.47;;;;;;;;;;5049041;28;20044;-71
2021/09/25 02:09:45;;;;;;;9.80;4.20;;;;;;;;;;5045149;28;20470;-70
2021/09/25 02:12:12;;;;;;;10.88;4.60;;;;;;;;;;5040962;28;20024;-71
2021/09/25 02:14:38;;;;;;;13.32;4.60;;;;;;;;;;5051286;28;20025;-70
2021/09/25 02:17:04;;;;;;;12.98;4.55;;;;;;;;;;5034370;28;20508;-70
2021/09/25 02:19:30;;;;;;;11.13;4.18;;;;;;;;;;5053439;28;20370;-70
2021/09/25 02:21:56;;;;;;;12.02;4.57;;;;;;;;;;5048788;28;20025;-70
2021/09/25 02:24:22;;;;;;;17.00;4.78;;;;;;;;;;5050784;28;20441;-70
2021/09/25 02:26:48;;;;;;;14.60;4.30;;;;;;;;;;5048530;28;20033;-70
2021/09/25 02:29:14;;;;;;;11.32;4.95;;;;;;;;;;5032722;28;20048;-70
2021/09/25 02:31:41;;;;;;;16.70;4.50;;;;;;;;;;5052247;28;20498;-70
2021/09/25 02:34:07;;;;;;;11.40;5.05;;;;;;;;;;5050120;28;20035;-70
2021/09/25 02:36:33;;;;;;;14.27;5.05;;;;;;;;;;5028376;28;20235;-70
2021/09/25 02:39:01;;;;;;;8.73;4.65;;;;;;;;;;5044373;28;20117;-70
2021/09/25 02:41:27;;;;;;;13.50;4.45;;;;;;;;;;5047546;28;20022;-70
2021/09/25 02:43:53;;;;;;;16.85;5.25;;;;;;;;;;5052703;28;20378;-70
2021/09/25 02:46:19;;;;;;;16.90;4.53;;;;;;;;;;5046315;28;20401;-70
2021/09/25 02:48:46;;;;;;;15.30;5.30;;;;;;;;;;5052897;28;20434;-70
2021/09/25 02:51:12;;;;;;;13.25;4.90;;;;;;;;;;5051349;28;20053;-70
2021/09/25 02:53:38;;;;;;;14.73;4.95;;;;;;;;;;5052227;28;20469;-70
2021/09/25 02:56:04;;;;;;;16.67;5.78;;;;;;;;;;5050713;28;20040;-70
2021/09/25 02:58:30;;;;;;;11.38;4.95;;;;;;;;;;5028509;28;20386;-70
2021/09/25 03:00:55;;;;;;;16.70;5.28;;;;;;;;;;5047621;28;20028;-70
2021/09/25 03:03:21;;;;;;;15.48;6.15;;;;;;;;;;5046050;28;20374;-70
2021/09/25 03:05:47;;;;;;;12.85;4.85;;;;;;;;;;5052566;28;20021;-70
2021/09/25 03:08:13;;;;;;;12.00;5.18;;;;;;;;;;5029031;28;20048;-70
2021/09/25 03:10:39;;;;;;;12.63;5.07;;;;;;;;;;5051938;28;20020;-70
2021/09/25 03:13:05;;;;;;;15.75;5.47;;;;;;;;;;5050174;28;20385;-70
2021/09/25 03:15:31;;;;;;;12.05;5.97;;;;;;;;;;5045830;28;20078;-70
2021/09/25 03:17:57;;;;;;;11.05;6.03;;;;;;;;;;5057052;28;20059;-70
2021/09/25 03:20:24;;;;;;;13.63;5.68;;;;;;;;;;5053223;28;20067;-70
2021/09/25 03:22:50;;;;;;;17.58;6.78;;;;;;;;;;5057765;28;20053;-71
2021/09/25 03:25:16;;;;;;;16.92;5.93;;;;;;;;;;5058794;28;20021;-71
2021/09/25 03:27:42;;;;;;;17.92;6.40;;;;;;;;;;5060870;28;20056;-71
2021/09/25 03:30:08;;;;;;;15.27;5.68;;;;;;;;;;5060258;28;20083;-71
2021/09/25 03:32:34;;;;;;;16.00;5.28;;;;;;;;;;5059000;28;20086;-71
2021/09/25 03:35:00;;;;;;;17.05;5.25;;;;;;;;;;5057976;28;20491;-71
2021/09/25 03:37:26;;;;;;;15.35;6.22;;;;;;;;;;5032394;28;20471;-71
2021/09/25 03:39:52;;;;;;;16.75;6.22;;;;;;;;;;5054224;28;20029;-70
2021/09/25 03:42:18;;;;;;;16.80;6.38;;;;;;;;;;5052404;28;20021;-70
2021/09/25 03:44:45;;;;;;;12.70;5.60;;;;;;;;;;5052662;28;20043;-70
2021/09/25 03:47:10;;;;;;;18.20;6.72;;;;;;;;;;5031715;28;20028;-70
2021/09/25 03:49:36;;;;;;;18.23;6.55;;;;;;;;;;5043463;28;20025;-70
2021/09/25 03:52:03;;;;;;;16.48;5.43;;;;;;;;;;5051615;28;20024;-70
2021/09/25 03:54:29;;;;;;;14.30;7.45;;;;;;;;;;5051835;28;20049;-70
2021/09/25 03:56:55;;;;;;;12.15;5.60;;;;;;;;;;5049853;28;20067;-70
2021/09/25 03:59:21;;;;;;;16.73;7.65;;;;;;;;;;5033697;28;20029;-70
2021/09/25 04:01:46;;;;;;;14.32;6.47;;;;;;;;;;5029685;28;20034;-70
2021/09/25 04:04:12;;;;;;;13.20;7.32;;;;;;;;;;5050424;28;20512;-70
2021/09/25 04:06:38;;;;;;;14.57;6.90;;;;;;;;;;5051143;28;20020;-70
2021/09/25 04:09:06;;;;;;;17.58;6.68;;;;;;;;;;5043762;28;20441;-70
2021/09/25 04:11:32;;;;;;;12.60;6.65;;;;;;;;;;5032863;28;20036;-70
2021/09/25 04:13:58;;;;;;;15.10;6.03;;;;;;;;;;5032954;28;20021;-70
2021/09/25 04:16:26;;;;;;;15.52;7.10;;;;;;;;;;5049966;28;20051;-70
2021/09/25 04:18:52;;;;;;;19.52;7.80;;;;;;;;;;5046060;28;20067;-70
2021/09/25 04:21:18;;;;;;;15.93;6.53;;;;;;;;;;5050928;28;20025;-70
2021/09/25 04:23:44;;;;;;;21.35;7.05;;;;;;;;;;5046645;28;20021;-70
2021/09/25 04:26:10;;;;;;;17.58;7.93;;;;;;;;;;5046835;28;20022;-70
2021/09/25 04:28:36;;;;;;;12.55;6.65;;;;;;;;;;5031268;28;20044;-70
2021/09/25 04:31:02;;;;;;;21.60;7.72;;;;;;;;;;5037860;28;20034;-70
2021/09/25 04:33:27;;;;;;;22.17;8.15;;;;;;;;;;5049234;28;20025;-70
2021/09/25 04:35:53;;;;;;;17.80;8.30;;;;;;;;;;5044773;28;20032;-70
2021/09/25 04:38:19;;;;;;;20.65;8.80;;;;;;;;;;5038270;28;20057;-70
2021/09/25 04:40:45;;;;;;;16.23;8.27;;;;;;;;;;5043936;28;20107;-70
2021/09/25 04:43:11;;;;;;;16.75;7.40;;;;;;;;;;5029311;28;20060;-70
2021/09/25 04:45:37;;;;;;;19.20;9.20;;;;;;;;;;5041571;28;20028;-70
2021/09/25 04:48:03;;;;;;;18.35;7.80;;;;;;;;;;5044492;28;20063;-70
2021/09/25 04:50:29;;;;;;;18.20;7.80;;;;;;;;;;5039228;28;20029;-70
2021/09/25 04:53:05;;;;;;;20.58;7.65;;;;;;;;;;5029781;28;20033;-70
2021/09/25 04:55:31;;;;;;;19.55;9.02;;;;;;;;;;5047533;28;20535;-70
2021/09/25 04:57:57;;;;;;;20.38;8.30;;;;;;;;;;5038837;28;20033;-70
2021/09/25 05:00:23;;;;;;;23.30;9.63;;;;;;;;;;5028168;28;20024;-70
2021/09/25 05:02:49;;;;;;;20.77;9.57;;;;;;;;;;5038927;28;20035;-70
2021/09/25 05:05:15;;;;;;;21.25;10.32;;;;;;;;;;5046778;28;20052;-70
2021/09/25 05:07:41;;;;;;;20.80;10.13;;;;;;;;;;5040412;28;20064;-70
2021/09/25 05:10:07;;;;;;;20.25;10.68;;;;;;;;;;5042765;28;20033;-70
2021/09/25 05:12:33;;;;;;;21.27;9.85;;;;;;;;;;5044161;28;20017;-69
2021/09/25 05:14:59;;;;;;;24.40;9.77;;;;;;;;;;5047667;28;20406;-70
2021/09/25 05:17:25;;;;;;;27.77;11.57;;;;;;;;;;5043936;28;20027;-70
2021/09/25 05:19:51;;;;;;;25.95;10.77;;;;;;;;;;5043823;28;20418;-70
2021/09/25 05:22:18;;;;;;;27.20;11.68;;;;;;;;;;5043887;28;20352;-70
2021/09/25 05:24:45;;;;;;;22.48;11.55;;;;;;;;;;5044916;28;20267;-70
2021/09/25 05:27:11;;;;;;;20.90;10.65;;;;;;;;;;5045597;28;20525;-70
2021/09/25 05:29:37;;;;;;;29.77;12.68;;;;;;;;;;5042892;28;20381;-70
2021/09/25 05:32:03;;;;;;;30.55;12.07;;;;;;;;;;5034969;28;20026;-70
2021/09/25 05:34:29;;;;;;;21.77;11.27;;;;;;;;;;5046558;28;20024;-70
2021/09/25 05:36:57;;;;;;;23.98;11.52;;;;;;;;;;5038185;28;20025;-70
2021/09/25 05:39:23;;;;;;;28.50;12.27;;;;;;;;;;5039125;23;20061;-66
2021/09/25 05:41:49;;;;;;;25.55;11.27;;;;;;;;;;5013156;28;20050;-66
2021/09/25 05:44:15;;;;;;;27.88;10.82;;;;;;;;;;5007117;28;20470;-67
2021/09/25 05:46:41;;;;;;;30.73;11.52;;;;;;;;;;5007678;28;20057;-67
2021/09/25 05:49:07;;;;;;;31.17;12.60;;;;;;;;;;5020141;28;20053;-67
2021/09/25 05:51:33;;;;;;;47.65;12.88;;;;;;;;;;5029778;28;20421;-67
2021/09/25 05:53:58;;;;;;;27.90;12.40;;;;;;;;;;5033004;28;20486;-67
2021/09/25 05:56:25;;;;;;;31.60;11.35;;;;;;;;;;5033215;28;20052;-67
2021/09/25 05:58:51;;;;;;;34.45;11.32;;;;;;;;;;5032557;28;20104;-67
2021/09/25 06:01:17;;;;;;;23.63;11.13;;;;;;;;;;5032292;28;20435;-67
2021/09/25 06:03:43;;;;;;;30.75;11.98;;;;;;;;;;5026634;28;20092;-67
2021/09/25 06:06:08;;;;;;;26.27;12.35;;;;;;;;;;5016157;28;20026;-67
2021/09/25 06:08:34;;;;;;;28.50;12.02;;;;;;;;;;5018136;28;20029;-66
2021/09/25 06:11:00;;;;;;;23.85;10.93;;;;;;;;;;5014240;28;20076;-67
2021/09/25 06:13:26;;;;;;;33.88;10.85;;;;;;;;;;5016656;28;20080;-67
2021/09/25 06:15:52;;;;;;;25.33;11.90;;;;;;;;;;5014804;28;20265;-67
2021/09/25 06:18:18;;;;;;;33.75;11.80;;;;;;;;;;5020378;28;20022;-67
2021/09/25 06:20:44;;;;;;;28.30;10.98;;;;;;;;;;5014830;28;20022;-66
2021/09/25 06:23:10;;;;;;;28.67;11.07;;;;;;;;;;5018110;28;20076;-67
2021/09/25 06:25:36;;;;;;;24.17;10.68;;;;;;;;;;5015385;28;20048;-67
2021/09/25 06:28:02;;;;;;;29.50;11.75;;;;;;;;;;5017544;28;20056;-67
2021/09/25 06:30:28;;;;;;;23.33;11.35;;;;;;;;;;5013875;28;20453;-66
2021/09/25 06:32:56;;;;;;;29.50;10.85;;;;;;;;;;5013279;28;20112;-67
2021/09/25 06:35:22;;;;;;;27.45;11.60;;;;;;;;;;5013023;28;20026;-67
2021/09/25 06:37:48;;;;;;;28.73;11.73;;;;;;;;;;5011846;28;20030;-66
2021/09/25 06:40:14;;;;;;;25.63;12.32;;;;;;;;;;5014435;28;20041;-67
2021/09/25 06:42:40;;;;;;;27.48;10.50;;;;;;;;;;5015905;28;20068;-67
2021/09/25 06:45:07;;;;;;;31.85;11.35;;;;;;;;;;5014649;28;20028;-67
2021/09/25 06:47:33;;;;;;;30.17;11.07;;;;;;;;;;5027872;28;20125;-67
2021/09/25 06:49:59;;;;;;;30.95;10.52;;;;;;;;;;5012005;28;20060;-67
2021/09/25 06:52:25;;;;;;;29.75;11.13;;;;;;;;;;5014060;28;20034;-67
2021/09/25 06:54:51;;;;;;;27.40;11.10;;;;;;;;;;5012031;28;20490;-67
2021/09/25 06:57:17;;;;;;;28.25;11.50;;;;;;;;;;5012964;28;20471;-67
2021/09/25 06:59:43;;;;;;;29.17;12.05;;;;;;;;;;5019778;28;20035;-67
2021/09/25 07:02:09;;;;;;;27.27;12.20;;;;;;;;;;5010075;28;20026;-66
2021/09/25 07:04:36;;;;;;;26.60;11.38;;;;;;;;;;5017585;28;20029;-66
2021/09/25 07:07:02;;;;;;;26.77;11.90;;;;;;;;;;5013808;28;20025;-67
2021/09/25 07:09:28;;;;;;;39.13;13.68;;;;;;;;;;5028050;28;20022;-67
2021/09/25 07:11:54;;;;;;;33.10;11.38;;;;;;;;;;5015108;28;20329;-67
2021/09/25 07:14:20;;;;;;;27.45;11.77;;;;;;;;;;5028457;28;20045;-67
2021/09/25 07:16:46;;;;;;;27.15;12.23;;;;;;;;;;5026307;28;20034;-67
2021/09/25 07:19:12;;;;;;;33.50;13.57;;;;;;;;;;5013983;28;20036;-67
2021/09/25 07:21:38;;;;;;;35.38;13.27;;;;;;;;;;4994895;28;20037;-67
2021/09/25 07:24:04;;;;;;;36.42;14.35;;;;;;;;;;5015985;28;20034;-67
2021/09/25 07:26:30;;;;;;;29.67;13.27;;;;;;;;;;4995546;28;20033;-67
2021/09/25 07:28:56;;;;;;;34.38;14.07;;;;;;;;;;5014031;28;20386;-67
2021/09/25 07:31:22;;;;;;;37.25;12.88;;;;;;;;;;5015538;28;20042;-67
2021/09/25 07:33:48;;;;;;;32.35;13.63;;;;;;;;;;5015091;28;20056;-67
2021/09/25 07:36:14;;;;;;;31.42;13.35;;;;;;;;;;5031865;28;20434;-67
2021/09/25 07:38:41;;;;;;;30.98;14.02;;;;;;;;;;5011888;28;20030;-67
2021/09/25 07:41:07;;;;;;;43.25;16.10;;;;;;;;;;5035532;28;20524;-67
2021/09/25 07:43:33;;;;;;;38.70;14.95;;;;;;;;;;5014726;28;20029;-66
2021/09/25 07:45:59;;;;;;;41.30;16.80;;;;;;;;;;5021134;28;20609;-66
2021/09/25 07:48:25;;;;;;;48.80;14.85;;;;;;;;;;5017567;28;20057;-67
2021/09/25 07:50:52;;;;;;;43.78;15.52;;;;;;;;;;5024545;28;20433;-67
2021/09/25 07:53:18;;;;;;;46.05;15.85;;;;;;;;;;5030861;28;20101;-67
2021/09/25 07:55:44;;;;;;;44.30;18.13;;;;;;;;;;5014506;28;20036;-67
2021/09/25 07:58:10;;;;;;;39.03;16.20;;;;;;;;;;5016947;28;20030;-67
2021/09/25 08:00:36;;;;;;;42.65;16.75;;;;;;;;;;5013518;28;20081;-66
2021/09/25 08:03:03;;;;;;;36.58;14.13;;;;;;;;;;5018182;28;20107;-67
2021/09/25 08:05:29;;;;;;;38.03;14.13;;;;;;;;;;5011903;28;20109;-67
2021/09/25 08:07:55;;;;;;;44.22;15.95;;;;;;;;;;5017223;28;20100;-67
2021/09/25 08:10:21;;;;;;;35.15;15.02;;;;;;;;;;5016240;28;20022;-67
2021/09/25 08:12:47;;;;;;;35.97;15.38;;;;;;;;;;5016232;28;20025;-67
2021/09/25 08:15:13;;;;;;;38.25;16.95;;;;;;;;;;5018920;28;20378;-67
2021/09/25 08:17:39;;;;;;;40.92;16.27;;;;;;;;;;5020608;28;20076;-67
2021/09/25 08:20:06;;;;;;;41.67;16.88;;;;;;;;;;5021807;28;20034;-67
2021/09/25 08:22:32;;;;;;;39.83;17.27;;;;;;;;;;5020210;28;20022;-67
2021/09/25 08:24:58;;;;;;;46.08;18.13;;;;;;;;;;5020986;28;20026;-67
2021/09/25 08:27:24;;;;;;;37.65;17.52;;;;;;;;;;5028625;28;20032;-67
2021/09/25 08:29:50;;;;;;;37.78;17.45;;;;;;;;;;5028453;28;20018;-67
2021/09/25 08:32:16;;;;;;;41.30;16.65;;;;;;;;;;5029518;28;20029;-67
2021/09/25 08:34:42;;;;;;;42.70;16.95;;;;;;;;;;5023028;28;20105;-67
2021/09/25 08:37:10;;;;;;;36.72;17.85;;;;;;;;;;5021812;28;20073;-67
2021/09/25 08:39:36;;;;;;;35.00;15.48;;;;;;;;;;5016369;28;20029;-67
2021/09/25 08:42:02;;;;;;;43.97;17.75;;;;;;;;;;5014453;28;20066;-67
2021/09/25 08:44:30;;;;;;;43.33;20.80;;;;;;;;;;5020143;28;20502;-67
2021/09/25 08:46:56;;;;;;;43.63;17.92;;;;;;;;;;5016775;28;20036;-68
2021/09/25 08:49:23;;;;;;;46.05;19.10;;;;;;;;;;5016132;28;20029;-67
2021/09/25 08:51:49;;;;;;;39.92;17.98;;;;;;;;;;5014500;28;20034;-67
2021/09/25 08:54:15;;;;;;;35.55;19.33;;;;;;;;;;5018473;28;20505;-67
2021/09/25 08:56:41;;;;;;;42.08;19.27;;;;;;;;;;5016426;28;20085;-67
2021/09/25 08:59:07;;;;;;;43.10;19.42;;;;;;;;;;5015091;28;20407;-67
2021/09/25 09:01:33;;;;;;;50.05;19.10;;;;;;;;;;5014489;28;20082;-68
2021/09/25 09:03:59;;;;;;;40.97;19.38;;;;;;;;;;5012583;28;20483;-66
2021/09/25 09:06:27;;;;;;;39.97;20.55;;;;;;;;;;5014459;28;20026;-67
2021/09/25 09:08:54;;;;;;;36.58;19.48;;;;;;;;;;5011424;28;20030;-67
2021/09/25 09:11:20;;;;;;;42.88;20.90;;;;;;;;;;5016246;28;20030;-67
2021/09/25 09:13:48;;;;;;;42.85;20.92;;;;;;;;;;5013891;28;20034;-67
2021/09/25 09:16:14;;;;;;;42.83;21.77;;;;;;;;;;5028495;28;20038;-67
2021/09/25 09:18:41;;;;;;;49.90;21.08;;;;;;;;;;5019070;28;20482;-67
2021/09/25 09:21:15;;;;;;;43.90;21.77;;;;;;;;;;5013361;28;20492;-67
2021/09/25 09:23:49;;;;;;;41.78;21.27;;;;;;;;;;5013650;28;20402;-67
2021/09/25 09:26:17;;;;;;;45.58;20.80;;;;;;;;;;5022513;28;20324;-67
2021/09/25 09:28:43;;;;;;;38.03;21.65;;;;;;;;;;5019480;28;20363;-67
2021/09/25 09:31:10;;;;;;;45.92;23.40;;;;;;;;;;5020624;28;20530;-67
2021/09/25 09:33:40;;;;;;;53.45;24.42;;;;;;;;;;5018277;28;20022;-67
2021/09/25 09:36:19;;;;;;;41.33;23.02;;;;;;;;;;5025434;28;20532;-67
2021/09/25 09:38:50;;;;;;;46.13;23.77;;;;;;;;;;5023624;28;20057;-67
2021/09/25 09:41:17;;;;;;;40.55;20.55;;;;;;;;;;5030805;28;20300;-67
2021/09/25 09:43:43;;;;;;;38.67;19.80;;;;;;;;;;5029491;28;20027;-67
2021/09/25 09:46:09;;;;;;;39.08;18.98;;;;;;;;;;5033281;28;20104;-68
2021/09/25 09:48:35;;;;;;;37.05;19.10;;;;;;;;;;5030038;28;20025;-68
2021/09/25 09:51:01;;;;;;;36.25;18.15;;;;;;;;;;5046863;28;20108;-67
2021/09/25 09:53:29;;;;;;;38.72;18.33;;;;;;;;;;5011843;28;20036;-70
2021/09/25 09:56:15;;;;;;;34.58;17.92;;;;;;;;;;5025484;28;20029;-69
2021/09/25 09:58:41;;;;;;;33.85;17.23;;;;;;;;;;5028133;28;20017;-69
2021/09/25 10:01:08;;;;;;;33.85;18.08;;;;;;;;;;5032901;28;20035;-69
2021/09/25 10:03:34;;;;;;;32.70;18.08;;;;;;;;;;5032418;28;20025;-67
2021/09/25 10:06:00;;;;;;;33.33;18.02;;;;;;;;;;5023833;28;20022;-66
2021/09/25 10:08:27;;;;;;;35.95;17.88;;;;;;;;;;5029697;28;20025;-66
2021/09/25 10:10:52;;;;;;;30.83;16.25;;;;;;;;;;5032648;28;20257;-66
2021/09/25 10:13:19;;;;;;;34.45;17.05;;;;;;;;;;5027293;28;20068;-66
2021/09/25 10:15:44;;;;;;;28.30;16.27;;;;;;;;;;5023868;28;20044;-66
2021/09/25 10:18:10;;;;;;;31.10;16.60;;;;;;;;;;5021608;28;20060;-66
2021/09/25 10:20:36;;;;;;;40.00;18.85;;;;;;;;;;5032195;28;20429;-66
2021/09/25 10:23:02;;;;;;;30.13;16.98;;;;;;;;;;5026970;28;20041;-66
2021/09/25 10:25:29;;;;;;;30.30;17.60;;;;;;;;;;5024855;28;20044;-66
2021/09/25 10:27:57;;;;;;;33.78;18.17;;;;;;;;;;5025419;28;20036;-67
2021/09/25 10:30:34;;;;;;;34.22;21.33;;;;;;;;;;5029368;28;20022;-66
2021/09/25 10:33:12;;;;;;;40.28;19.95;;;;;;;;;;5016432;28;20025;-66
2021/09/25 10:35:38;;;;;;;34.33;20.50;;;;;;;;;;5017318;28;20136;-66
2021/09/25 10:38:04;;;;;;;34.63;19.13;;;;;;;;;;5017189;28;20104;-67
2021/09/25 10:40:31;;;;;;;34.40;20.88;;;;;;;;;;5019601;28;20483;-65
2021/09/25 10:43:01;;;;;;;44.17;18.58;;;;;;;;;;5012628;28;20022;-67
2021/09/25 10:45:30;;;;;;;30.38;19.85;;;;;;;;;;5029627;28;20092;-67
2021/09/25 10:48:06;;;;;;;41.47;20.38;;;;;;;;;;5012640;28;20033;-67
2021/09/25 10:50:33;;;;;;;37.00;19.83;;;;;;;;;;5030541;28;20022;-67
2021/09/25 10:53:05;;;;;;;34.70;19.80;;;;;;;;;;5015157;28;20029;-66
2021/09/25 10:55:32;;;;;;;37.63;19.90;;;;;;;;;;5015252;28;20022;-67
2021/09/25 10:58:16;;;;;;;37.78;19.25;;;;;;;;;;5012193;28;20018;-67
2021/09/25 11:00:48;;;;;;;35.97;20.15;;;;;;;;;;5017188;28;20033;-67
2021/09/25 11:03:33;;;;;;;31.27;19.70;;;;;;;;;;5029649;28;20034;-67
2021/09/25 11:06:05;;;;;;;34.03;20.13;;;;;;;;;;5015064;28;20036;-67
2021/09/25 11:08:32;;;;;;;34.15;20.45;;;;;;;;;;5016682;28;20026;-67
2021/09/25 11:11:08;;;;;;;34.30;19.25;;;;;;;;;;5016772;28;20068;-66
2021/09/25 11:13:53;;;;;;;33.47;20.98;;;;;;;;;;5015004;28;20377;-67
2021/09/25 11:16:39;;;;;;;38.83;20.20;;;;;;;;;;5015601;28;20030;-67
2021/09/25 11:19:08;;;;;;;38.83;19.65;;;;;;;;;;5034718;28;20429;-66
2021/09/25 11:21:34;;;;;;;40.50;23.80;;;;;;;;;;5033837;28;20026;-67
2021/09/25 11:24:00;;;;;;;40.75;22.52;;;;;;;;;;5017521;28;21020;-66
2021/09/25 11:26:26;;;;;;;43.25;22.50;;;;;;;;;;5016589;28;20068;-66
2021/09/25 11:28:52;;;;;;;37.60;21.20;;;;;;;;;;5013135;28;20101;-67
2021/09/25 11:31:18;;;;;;;34.10;20.52;;;;;;;;;;5014710;28;20490;-67
2021/09/25 11:33:44;;;;;;;33.33;20.35;;;;;;;;;;5010544;28;20056;-67
2021/09/25 11:36:11;;;;;;;38.63;21.23;;;;;;;;;;5016053;28;20041;-67
2021/09/25 11:38:44;;;;;;;41.58;21.40;;;;;;;;;;5016503;28;20083;-67
2021/09/25 11:41:14;;;;;;;40.17;21.88;;;;;;;;;;5022025;23;20049;-71
2021/09/25 11:43:40;;;;;;;43.13;25.25;;;;;;;;;;4992821;28;20026;-72
2021/09/25 11:46:06;;;;;;;40.28;25.95;;;;;;;;;;4990381;28;20454;-71
2021/09/25 11:48:34;;;;;;;47.83;26.27;;;;;;;;;;4993675;28;20414;-72
2021/09/25 11:51:02;;;;;;;43.20;26.38;;;;;;;;;;4993263;28;20109;-71
2021/09/25 11:53:30;;;;;;;46.38;26.90;;;;;;;;;;4978873;28;20105;-71
2021/09/25 11:55:57;;;;;;;52.72;28.98;;;;;;;;;;4996028;28;20043;-72
2021/09/25 11:58:24;;;;;;;53.70;28.75;;;;;;;;;;4990606;28;20089;-70
2021/09/25 12:00:50;;;;;;;54.88;28.17;;;;;;;;;;4994828;28;20029;-71
2021/09/25 12:03:19;;;;;;;68.90;28.95;;;;;;;;;;4995054;28;20025;-70
2021/09/25 12:05:50;;;;;;;53.67;25.70;;;;;;;;;;4991405;28;20387;-71
2021/09/25 12:08:18;;;;;;;51.42;26.45;;;;;;;;;;4998475;28;20032;-71
2021/09/25 12:10:45;;;;;;;47.25;26.67;;;;;;;;;;5000665;28;20014;-71
2021/09/25 12:13:19;;;;;;;40.17;24.25;;;;;;;;;;4998718;28;20022;-70
2021/09/25 12:15:46;;;;;;;45.63;25.73;;;;;;;;;;4994309;28;20022;-70
2021/09/25 12:18:15;;;;;;;42.42;22.38;;;;;;;;;;4994160;28;20323;-70
2021/09/25 12:20:42;;;;;;;41.42;23.00;;;;;;;;;;5001920;28;20097;-70
2021/09/25 12:23:09;;;;;;;41.40;22.75;;;;;;;;;;4997496;28;20022;-70
2021/09/25 12:25:38;;;;;;;37.95;22.15;;;;;;;;;;4994505;28;20022;-70
2021/09/25 12:28:22;;;;;;;44.13;22.63;;;;;;;;;;4996973;28;20010;-71
2021/09/25 12:30:48;;;;;;;45.13;21.98;;;;;;;;;;4986453;28;20035;-71
2021/09/25 12:33:17;;;;;;;48.42;24.52;;;;;;;;;;4990579;28;20030;-70
2021/09/25 12:35:43;;;;;;;41.50;22.88;;;;;;;;;;4981937;28;20072;-70
2021/09/25 12:38:13;;;;;;;37.58;21.67;;;;;;;;;;4990498;28;20718;-71
2021/09/25 12:40:42;;;;;;;40.50;23.00;;;;;;;;;;4972898;28;20038;-70
2021/09/25 12:43:09;;;;;;;40.15;20.75;;;;;;;;;;5004336;28;20029;-71
2021/09/25 12:45:35;;;;;;;44.28;21.67;;;;;;;;;;4993169;28;20081;-71
2021/09/25 12:48:14;;;;;;;35.95;20.30;;;;;;;;;;4984063;28;20034;-71
2021/09/25 12:50:47;;;;;;;33.58;19.92;;;;;;;;;;4993307;28;20030;-70
2021/09/25 12:53:16;;;;;;;39.15;21.40;;;;;;;;;;4990148;28;20022;-70
2021/09/25 12:55:42;;;;;;;33.63;19.02;;;;;;;;;;4979461;28;20026;-70
2021/09/25 12:58:07;;;;;;;33.92;18.65;;;;;;;;;;4989745;28;20027;-71
2021/09/25 13:00:33;;;;;;;33.50;18.27;;;;;;;;;;4989764;28;20027;-71
2021/09/25 13:03:01;;;;;;;33.65;18.02;;;;;;;;;;4993098;28;20357;-70
2021/09/25 13:05:28;;;;;;;33.00;19.88;;;;;;;;;;4986242;28;20388;-70
2021/09/25 13:07:54;;;;;;;34.03;19.05;;;;;;;;;;4999681;28;20080;-71
2021/09/25 13:10:24;;;;;;;32.08;18.55;;;;;;;;;;4995365;28;20030;-71
2021/09/25 13:12:51;;;;;;;32.92;18.05;;;;;;;;;;4996481;28;20106;-71
2021/09/25 13:15:29;;;;;;;27.20;16.13;;;;;;;;;;5005611;28;20135;-71
2021/09/25 13:17:57;;;;;;;32.03;16.25;;;;;;;;;;4998780;28;20014;-70
2021/09/25 13:20:24;;;;;;;31.73;16.77;;;;;;;;;;4997679;28;20030;-70
2021/09/25 13:22:57;;;;;;;30.83;17.40;;;;;;;;;;4989051;28;20077;-70
2021/09/25 13:25:24;;;;;;;29.60;17.08;;;;;;;;;;4970984;28;20045;-70
2021/09/25 13:27:51;;;;;;;32.15;16.33;;;;;;;;;;4991001;28;20153;-70
2021/09/25 13:30:17;;;;;;;29.15;16.75;;;;;;;;;;4994473;28;20037;-70
2021/09/25 13:32:43;;;;;;;24.88;15.13;;;;;;;;;;5001433;28;20040;-70
2021/09/25 13:35:10;;;;;;;27.48;14.80;;;;;;;;;;5000212;28;20045;-70
2021/09/25 13:37:36;;;;;;;28.90;14.60;;;;;;;;;;4978388;28;20466;-70
2021/09/25 13:40:03;;;;;;;30.70;15.73;;;;;;;;;;4994411;28;20062;-70
2021/09/25 13:42:29;;;;;;;32.00;15.30;;;;;;;;;;4993580;28;20022;-71
2021/09/25 13:44:55;;;;;;;19.77;13.30;;;;;;;;;;4998473;28;20030;-70
2021/09/25 13:47:21;;;;;;;20.00;12.80;;;;;;;;;;4992408;28;20430;-70
2021/09/25 13:49:47;;;;;;;18.05;11.88;;;;;;;;;;4990163;28;20031;-70
2021/09/25 13:52:13;;;;;;;19.65;11.77;;;;;;;;;;4995528;28;20105;-70
2021/09/25 13:54:39;;;;;;;17.02;11.93;;;;;;;;;;4996576;28;20038;-70
2021/09/25 13:57:05;;;;;;;22.50;13.02;;;;;;;;;;4998980;28;20105;-70
2021/09/25 13:59:32;;;;;;;22.48;12.65;;;;;;;;;;4994545;28;20438;-70
2021/09/25 14:01:58;;;;;;;20.13;13.18;;;;;;;;;;4998157;28;20091;-70
2021/09/25 14:04:24;;;;;;;26.48;12.95;;;;;;;;;;4995033;28;20026;-70
2021/09/25 14:06:50;;;;;;;20.23;12.27;;;;;;;;;;4997541;28;20101;-70
2021/09/25 14:09:16;;;;;;;19.95;11.82;;;;;;;;;;4995846;28;20490;-70
2021/09/25 14:11:42;;;;;;;17.83;11.50;;;;;;;;;;4971898;28;20037;-70
2021/09/25 14:14:08;;;;;;;23.25;12.68;;;;;;;;;;4993406;28;20030;-71
2021/09/25 14:16:34;;;;;;;22.08;12.75;;;;;;;;;;4993964;28;20088;-70
2021/09/25 14:19:03;;;;;;;24.70;13.43;;;;;;;;;;5004885;28;20111;-71
2021/09/25 14:21:35;;;;;;;25.42;15.50;;;;;;;;;;5003702;28;20112;-69